createdAt,value
2019-02-25T00:01:58.800Z,13.57
2019-02-25T00:04:36.300Z,12.20
2019-02-25T00:07:13.908Z,12.50
2019-02-25T00:09:51.391Z,12.17
2019-02-25T00:12:28.924Z,12.07
2019-02-25T00:15:06.421Z,12.97
2019-02-25T00:17:47.038Z,12.23
2019-02-25T00:20:24.566Z,12.13
2019-02-25T00:23:02.056Z,12.20
2019-02-25T00:25:46.461Z,12.50
2019-02-25T00:28:23.936Z,12.90
2019-02-25T00:31:01.455Z,13.17
2019-02-25T00:33:38.935Z,13.00
2019-02-25T00:36:16.562Z,12.60
2019-02-25T00:38:54.048Z,12.60
2019-02-25T00:41:31.545Z,12.57
2019-02-25T00:44:09.036Z,11.73
2019-02-25T00:46:46.629Z,13.50
2019-02-25T00:49:24.155Z,13.37
2019-02-25T00:52:12.196Z,13.93
2019-02-25T00:54:56.952Z,14.47
2019-02-25T00:57:36.337Z,13.27
2019-02-25T01:00:16.085Z,14.27
2019-02-25T01:02:53.600Z,14.33
2019-02-25T01:05:37.813Z,13.73
2019-02-25T01:08:15.672Z,13.60
2019-02-25T01:10:53.171Z,13.37
2019-02-25T01:13:30.647Z,13.47
2019-02-25T01:16:14.752Z,12.40
2019-02-25T01:18:52.223Z,12.80
2019-02-25T01:21:29.754Z,12.77
2019-02-25T01:24:07.242Z,12.57
2019-02-25T01:26:50.956Z,12.23
2019-02-25T01:29:28.437Z,13.13
2019-02-25T01:32:05.956Z,13.47
2019-02-25T01:34:43.455Z,12.63
2019-02-25T01:37:22.992Z,12.87
2019-02-25T01:40:00.476Z,12.57
2019-02-25T01:42:38.009Z,12.07
2019-02-25T01:45:21.709Z,12.60
2019-02-25T01:47:59.223Z,12.90
2019-02-25T01:50:36.731Z,12.40
2019-02-25T01:53:14.218Z,12.77
2019-02-25T01:55:58.510Z,12.17
2019-02-25T01:58:36.057Z,11.83
2019-02-25T02:01:13.576Z,12.67
2019-02-25T02:03:51.082Z,12.83
2019-02-25T02:06:29.429Z,12.43
2019-02-25T02:09:07.359Z,11.83
2019-02-25T02:11:44.870Z,13.03
2019-02-25T02:14:22.345Z,12.30
2019-02-25T02:17:00.934Z,11.90
2019-02-25T02:19:38.452Z,13.27
2019-02-25T02:22:16.003Z,12.70
2019-02-25T02:24:53.575Z,13.17
2019-02-25T02:27:31.109Z,12.20
2019-02-25T02:30:11.082Z,13.87
2019-02-25T02:32:48.596Z,12.67
2019-02-25T02:35:39.008Z,12.00
2019-02-25T02:38:16.536Z,12.33
2019-02-25T02:40:54.022Z,13.53
2019-02-25T02:43:31.541Z,12.87
2019-02-25T02:46:39.710Z,12.90
2019-02-25T02:49:17.206Z,11.60
2019-02-25T02:51:54.702Z,11.53
2019-02-25T02:54:32.214Z,13.00
2019-02-25T02:57:09.734Z,11.33
2019-02-25T02:59:47.261Z,12.30
2019-02-25T03:02:24.777Z,11.20
2019-02-25T03:05:14.067Z,11.03
2019-02-25T03:07:52.370Z,12.17
2019-02-25T03:10:29.838Z,12.00
2019-02-25T03:13:07.331Z,11.97
2019-02-25T03:15:52.078Z,11.97
2019-02-25T03:18:29.567Z,12.23
2019-02-25T03:21:07.055Z,12.37
2019-02-25T03:23:44.592Z,11.77
2019-02-25T03:26:23.158Z,11.10
2019-02-25T03:29:00.682Z,11.30
2019-02-25T03:31:38.184Z,11.00
2019-02-25T03:34:15.802Z,12.70
2019-02-25T03:37:11.902Z,11.30
2019-02-25T03:39:49.393Z,12.10
2019-02-25T03:42:26.888Z,11.80
2019-02-25T03:45:19.074Z,11.00
2019-02-25T03:47:56.562Z,10.40
2019-02-25T03:50:34.462Z,11.47
2019-02-25T03:53:11.953Z,10.87
2019-02-25T03:55:49.559Z,10.57
2019-02-25T03:58:27.076Z,10.07
2019-02-25T04:01:04.559Z,11.17
2019-02-25T04:03:42.231Z,10.97
2019-02-25T04:06:20.371Z,10.30
2019-02-25T04:08:57.872Z,10.47
2019-02-25T04:11:35.356Z,10.33
2019-02-25T04:14:12.861Z,11.67
2019-02-25T04:16:50.327Z,10.57
2019-02-25T04:19:27.858Z,11.13
2019-02-25T04:22:05.334Z,11.23
2019-02-25T04:25:08.135Z,9.53
2019-02-25T04:27:45.635Z,9.37
2019-02-25T04:30:23.212Z,10.20
2019-02-25T04:33:00.730Z,9.97
2019-02-25T04:35:55.033Z,10.30
2019-02-25T04:38:32.568Z,10.27
2019-02-25T04:41:10.090Z,10.33
2019-02-25T04:43:47.625Z,10.13
2019-02-25T04:46:25.195Z,10.30
2019-02-25T04:49:02.723Z,11.30
2019-02-25T04:51:40.223Z,11.67
2019-02-25T04:54:17.720Z,11.77
2019-02-25T04:56:55.206Z,10.40
2019-02-25T04:59:32.725Z,10.63
2019-02-25T05:02:10.219Z,10.63
2019-02-25T05:04:54.536Z,11.27
2019-02-25T05:07:32.027Z,11.50
2019-02-25T05:10:10.563Z,11.03
2019-02-25T05:12:53.742Z,10.47
2019-02-25T05:15:35.405Z,10.30
2019-02-25T05:18:13.312Z,10.50
2019-02-25T05:20:50.784Z,10.00
2019-02-25T05:23:28.301Z,11.13
2019-02-25T05:26:05.882Z,11.33
2019-02-25T05:28:43.400Z,10.30
2019-02-25T05:31:20.887Z,10.07
2019-02-25T05:33:58.408Z,10.57
2019-02-25T05:36:35.955Z,10.73
2019-02-25T05:39:13.450Z,12.10
2019-02-25T05:41:50.940Z,12.00
2019-02-25T05:44:28.572Z,21.27
2019-02-25T05:47:06.080Z,27.93
2019-02-25T05:49:43.595Z,38.60
2019-02-25T05:52:21.074Z,33.80
2019-02-25T05:54:58.653Z,15.10
2019-02-25T05:57:36.147Z,12.73
2019-02-25T06:00:18.776Z,10.87
2019-02-25T06:02:56.270Z,9.53
2019-02-25T06:05:37.417Z,9.53
2019-02-25T06:08:14.926Z,10.97
2019-02-25T06:10:52.395Z,10.70
2019-02-25T06:13:29.906Z,10.70
2019-02-25T06:16:21.990Z,11.23
2019-02-25T06:18:59.490Z,11.50
2019-02-25T06:21:36.962Z,11.07
2019-02-25T06:24:14.604Z,10.30
2019-02-25T06:26:52.092Z,10.00
2019-02-25T06:29:29.588Z,10.23
2019-02-25T06:32:07.069Z,16.80
2019-02-25T06:34:46.608Z,15.83
2019-02-25T06:37:24.103Z,15.13
2019-02-25T06:40:01.608Z,12.50
2019-02-25T06:42:39.121Z,12.33
2019-02-25T06:45:38.717Z,11.83
2019-02-25T06:48:16.212Z,16.73
2019-02-25T06:50:53.749Z,17.57
2019-02-25T06:53:31.250Z,15.43
2019-02-25T06:56:28.443Z,16.43
2019-02-25T06:59:05.956Z,13.77
2019-02-25T07:01:43.448Z,15.27
2019-02-25T07:04:27.623Z,14.00
2019-02-25T07:07:08.571Z,14.60
2019-02-25T07:10:07.735Z,13.03
2019-02-25T07:12:58.262Z,17.00
2019-02-25T07:15:54.133Z,12.80
2019-02-25T07:18:53.218Z,10.13
2019-02-25T07:21:35.618Z,9.93
2019-02-25T07:24:38.404Z,8.73
2019-02-25T07:27:34.475Z,9.73
2019-02-25T07:30:51.311Z,9.93
2019-02-25T07:33:40.936Z,11.80
2019-02-25T07:36:37.151Z,14.93
2019-02-25T07:39:50.176Z,14.43
2019-02-25T07:42:44.568Z,11.17
2019-02-25T07:45:31.483Z,15.27
2019-02-25T07:48:17.333Z,11.93
2019-02-25T07:51:11.127Z,11.03
2019-02-25T07:54:13.847Z,11.37
2019-02-25T07:57:00.929Z,21.33
2019-02-25T07:59:46.090Z,20.23
2019-02-25T08:02:42.173Z,11.90
2019-02-25T08:05:52.228Z,11.87
2019-02-25T08:08:48.317Z,12.57
2019-02-25T08:11:32.406Z,12.30
2019-02-25T08:14:22.933Z,13.80
2019-02-25T08:17:07.510Z,13.80
2019-02-25T08:19:56.052Z,12.80
2019-02-25T08:22:47.449Z,13.67
2019-02-25T08:25:56.697Z,12.60
2019-02-25T08:28:57.226Z,11.67
2019-02-25T08:31:53.369Z,12.23
2019-02-25T08:34:55.862Z,12.67
2019-02-25T08:38:23.529Z,11.97
2019-02-25T08:41:23.947Z,12.10
2019-02-25T08:44:05.618Z,13.03
2019-02-25T08:46:48.551Z,13.73
2019-02-25T08:49:29.605Z,13.83
2019-02-25T08:52:07.090Z,12.23
2019-02-25T08:55:04.165Z,13.70
2019-02-25T08:57:41.670Z,13.70
2019-02-25T09:00:19.171Z,13.60
2019-02-25T09:02:56.648Z,14.30
2019-02-25T09:05:34.246Z,14.27
2019-02-25T09:08:11.719Z,13.93
2019-02-25T09:10:49.223Z,13.50
2019-02-25T09:13:26.813Z,14.63
2019-02-25T09:16:04.319Z,13.33
2019-02-25T09:18:41.827Z,12.93
2019-02-25T09:21:19.334Z,14.90
2019-02-25T09:24:07.360Z,13.73
2019-02-25T09:26:44.850Z,14.50
2019-02-25T09:29:22.334Z,14.83
2019-02-25T09:31:59.842Z,14.87
2019-02-25T09:34:37.405Z,14.33
2019-02-25T09:37:14.924Z,15.33
2019-02-25T09:39:52.409Z,13.87
2019-02-25T09:42:29.913Z,15.10
2019-02-25T09:45:17.917Z,15.53
2019-02-25T09:47:55.452Z,14.63
2019-02-25T09:50:32.978Z,13.87
2019-02-25T09:53:17.390Z,14.53
2019-02-25T09:55:54.899Z,14.73
2019-02-25T09:58:32.394Z,14.73
2019-02-25T10:01:09.887Z,14.33
2019-02-25T10:03:57.558Z,14.97
2019-02-25T10:06:35.091Z,14.83
2019-02-25T10:09:12.559Z,14.40
2019-02-25T10:11:50.059Z,13.97
2019-02-25T10:14:31.200Z,15.90
2019-02-25T10:17:08.716Z,13.40
2019-02-25T10:19:46.194Z,14.10
2019-02-25T10:22:23.690Z,14.57
2019-02-25T10:25:30.191Z,13.20
2019-02-25T10:28:07.728Z,14.27
2019-02-25T10:30:52.618Z,12.60
2019-02-25T10:34:40.455Z,13.00
2019-02-25T10:37:17.996Z,11.50
2019-02-25T10:39:55.519Z,12.70
2019-02-25T10:42:33.546Z,13.37
2019-02-25T10:45:38.908Z,13.70
2019-02-25T10:48:15.209Z,13.50
2019-02-25T10:50:56.117Z,11.77
2019-02-25T10:53:39.467Z,11.57
2019-02-25T10:56:47.337Z,12.53
2019-02-25T10:59:23.911Z,12.27
2019-02-25T11:02:01.420Z,12.60
2019-02-25T11:04:38.999Z,12.70
2019-02-25T11:07:16.504Z,11.70
2019-02-25T11:10:14.013Z,11.20
2019-02-25T11:12:50.124Z,11.50
2019-02-25T11:15:27.603Z,11.30
2019-02-25T11:18:05.127Z,11.17
2019-02-25T11:20:42.622Z,11.70
2019-02-25T11:23:21.670Z,11.40
2019-02-25T11:25:58.411Z,11.70
2019-02-25T11:28:36.633Z,10.53
2019-02-25T11:31:12.674Z,10.83
2019-02-25T11:33:53.613Z,10.50
2019-02-25T11:36:31.106Z,10.50
2019-02-25T11:39:09.618Z,10.10
2019-02-25T11:41:46.783Z,11.27
2019-02-25T11:44:33.632Z,10.43
2019-02-25T11:47:11.139Z,9.83
2019-02-25T11:49:50.738Z,10.00
2019-02-25T11:52:26.204Z,9.67
2019-02-25T11:55:03.677Z,10.57
2019-02-25T11:57:41.201Z,11.00
2019-02-25T12:00:23.490Z,10.43
2019-02-25T12:03:07.560Z,10.90
2019-02-25T12:05:45.048Z,10.33
2019-02-25T12:08:22.559Z,10.47
2019-02-25T12:11:00.038Z,10.47
2019-02-25T12:13:47.148Z,9.27
2019-02-25T12:16:24.619Z,9.57
2019-02-25T12:19:02.125Z,10.23
2019-02-25T12:21:39.707Z,10.30
2019-02-25T12:24:17.405Z,10.13
2019-02-25T12:26:54.897Z,11.27
2019-02-25T12:29:32.438Z,11.00
2019-02-25T12:32:09.899Z,9.83
2019-02-25T12:34:54.335Z,11.00
2019-02-25T12:37:31.853Z,10.70
2019-02-25T12:40:09.888Z,10.33
2019-02-25T12:43:40.724Z,10.03
2019-02-25T12:46:18.222Z,10.40
2019-02-25T12:48:55.746Z,10.00
2019-02-25T12:51:33.235Z,10.23
2019-02-25T12:54:14.241Z,9.60
2019-02-25T12:56:51.714Z,10.07
2019-02-25T12:59:29.263Z,10.80
2019-02-25T13:02:06.710Z,10.20
2019-02-25T13:04:44.290Z,9.63
2019-02-25T13:07:21.799Z,10.17
2019-02-25T13:09:59.289Z,9.93
2019-02-25T13:12:51.604Z,10.00
2019-02-25T13:15:27.403Z,10.33
2019-02-25T13:18:04.901Z,9.37
2019-02-25T13:20:42.381Z,9.50
2019-02-25T13:23:23.218Z,9.40
2019-02-25T13:26:07.206Z,9.70
2019-02-25T13:28:38.247Z,8.73
2019-02-25T13:31:15.742Z,9.23
2019-02-25T13:33:56.462Z,9.03
2019-02-25T13:36:33.969Z,8.00
2019-02-25T13:39:11.991Z,8.20
2019-02-25T13:41:49.476Z,8.53
2019-02-25T13:44:28.080Z,9.17
2019-02-25T13:47:05.582Z,8.70
2019-02-25T13:49:43.128Z,9.00
2019-02-25T13:52:20.733Z,8.23
2019-02-25T13:54:58.260Z,8.30
2019-02-25T13:57:35.767Z,8.33
2019-02-25T14:00:18.498Z,7.50
2019-02-25T14:02:59.420Z,7.47
2019-02-25T14:05:36.918Z,7.40
2019-02-25T14:08:14.429Z,8.57
2019-02-25T14:10:51.902Z,8.13
2019-02-25T14:13:36.506Z,8.20
2019-02-25T14:16:13.983Z,8.20
2019-02-25T14:18:51.501Z,7.97
2019-02-25T14:21:28.992Z,8.07
2019-02-25T14:24:06.634Z,8.00
2019-02-25T14:26:44.126Z,7.70
2019-02-25T14:29:21.630Z,8.07
2019-02-25T14:31:59.114Z,8.27
2019-02-25T14:34:36.627Z,8.00
2019-02-25T14:37:14.099Z,7.93
2019-02-25T14:39:53.901Z,8.37
2019-02-25T14:42:36.823Z,7.73
2019-02-25T14:45:14.716Z,7.80
2019-02-25T14:47:55.428Z,7.70
2019-02-25T14:50:29.326Z,7.87
2019-02-25T14:53:10.797Z,7.10
2019-02-25T14:55:46.955Z,8.23
2019-02-25T14:58:21.879Z,7.80
2019-02-25T15:00:59.390Z,7.40
2019-02-25T15:03:37.024Z,7.70
2019-02-25T15:06:14.489Z,7.90
2019-02-25T15:08:52.022Z,7.47
2019-02-25T15:11:29.509Z,6.63
2019-02-25T15:14:20.545Z,7.20
2019-02-25T15:16:58.024Z,7.37
2019-02-25T15:19:36.438Z,6.97
2019-02-25T15:22:13.111Z,6.73
2019-02-25T15:24:52.424Z,6.97
2019-02-25T15:27:28.099Z,6.43
2019-02-25T15:30:05.605Z,6.33
2019-02-25T15:32:54.861Z,6.80
2019-02-25T15:35:20.658Z,6.93
2019-02-25T15:38:00.072Z,6.43
2019-02-25T15:40:35.674Z,7.63
2019-02-25T15:43:17.691Z,7.53
2019-02-25T15:45:52.770Z,6.83
2019-02-25T15:48:30.958Z,7.60
2019-02-25T15:51:07.760Z,7.50
2019-02-25T15:53:48.658Z,7.13
2019-02-25T15:56:23.085Z,7.20
2019-02-25T15:59:00.584Z,7.53
2019-02-25T16:01:38.052Z,8.17
2019-02-25T16:04:15.542Z,8.03
2019-02-25T16:06:53.752Z,7.60
2019-02-25T16:09:31.520Z,8.13
2019-02-25T16:12:09.643Z,8.00
2019-02-25T16:14:47.049Z,7.50
2019-02-25T16:17:24.332Z,8.70
2019-02-25T16:20:00.888Z,8.33
2019-02-25T16:22:56.597Z,7.80
2019-02-25T16:25:34.355Z,8.63
2019-02-25T16:28:10.490Z,8.07
2019-02-25T16:30:49.138Z,8.37
2019-02-25T16:33:25.974Z,8.67
2019-02-25T16:36:03.966Z,8.40
2019-02-25T16:38:53.178Z,8.67
2019-02-25T16:41:32.209Z,8.97
2019-02-25T16:44:06.825Z,8.93
2019-02-25T16:46:43.748Z,11.40
2019-02-25T16:49:21.035Z,11.50
2019-02-25T16:52:00.330Z,13.07
2019-02-25T16:54:36.424Z,12.47
2019-02-25T16:57:14.597Z,12.47
2019-02-25T16:59:53.322Z,13.97
2019-02-25T17:02:30.197Z,14.93
2019-02-25T17:05:06.995Z,18.77
2019-02-25T17:07:45.105Z,19.47
2019-02-25T17:10:25.956Z,18.73
2019-02-25T17:13:03.203Z,15.70
2019-02-25T17:15:40.765Z,15.07
2019-02-25T17:18:18.234Z,14.93
2019-02-25T17:20:55.757Z,15.23
2019-02-25T17:23:34.520Z,15.77
2019-02-25T17:26:12.574Z,16.83
2019-02-25T17:28:48.493Z,18.53
2019-02-25T17:31:36.620Z,19.30
2019-02-25T17:34:14.286Z,17.70
2019-02-25T17:36:52.356Z,18.90
2019-02-25T17:39:29.499Z,19.00
2019-02-25T17:42:08.077Z,17.37
2019-02-25T17:44:43.803Z,21.63
2019-02-25T17:47:24.347Z,20.27
2019-02-25T17:50:00.852Z,23.13
2019-02-25T17:52:38.203Z,23.20
2019-02-25T17:55:17.469Z,21.37
2019-02-25T17:57:56.460Z,20.03
2019-02-25T18:00:38.803Z,20.00
2019-02-25T18:03:13.052Z,19.13
2019-02-25T18:05:50.559Z,17.40
2019-02-25T18:08:29.994Z,14.83
2019-02-25T18:11:25.312Z,14.83
2019-02-25T18:14:03.328Z,13.43
2019-02-25T18:16:42.574Z,13.70
2019-02-25T18:19:20.274Z,14.00
2019-02-25T18:22:13.751Z,15.73
2019-02-25T18:24:50.446Z,17.17
2019-02-25T18:27:28.011Z,16.07
2019-02-25T18:30:05.848Z,17.33
2019-02-25T18:32:43.475Z,15.60
2019-02-25T18:35:22.750Z,16.73
2019-02-25T18:38:00.320Z,16.80
2019-02-25T18:40:38.213Z,15.63
2019-02-25T18:43:15.851Z,14.80
2019-02-25T18:45:53.537Z,14.93
2019-02-25T18:48:31.101Z,15.40
2019-02-25T18:51:19.534Z,15.13
2019-02-25T18:53:59.157Z,15.57
2019-02-25T18:56:35.893Z,16.27
2019-02-25T18:59:15.374Z,15.67
2019-02-25T19:01:51.768Z,16.43
2019-02-25T19:04:27.397Z,14.63
2019-02-25T19:07:06.181Z,15.90
2019-02-25T19:09:43.054Z,16.10
2019-02-25T19:12:54.148Z,15.50
2019-02-25T19:15:32.517Z,14.93
2019-02-25T19:18:11.070Z,14.90
2019-02-25T19:20:48.255Z,16.73
2019-02-25T19:23:25.431Z,16.87
2019-02-25T19:26:02.961Z,16.17
2019-02-25T19:28:44.032Z,17.57
2019-02-25T19:31:20.155Z,19.33
2019-02-25T19:34:00.136Z,18.67
2019-02-25T19:36:36.927Z,18.20
2019-02-25T19:39:17.386Z,18.30
2019-02-25T19:42:00.504Z,16.73
2019-02-25T19:44:36.978Z,18.00
2019-02-25T19:47:16.807Z,17.37
2019-02-25T19:49:52.623Z,17.47
2019-02-25T19:52:44.278Z,16.40
2019-02-25T19:55:23.251Z,16.43
2019-02-25T19:57:58.927Z,15.43
2019-02-25T20:00:36.490Z,16.73
2019-02-25T20:03:14.048Z,15.77
2019-02-25T20:05:53.845Z,16.47
2019-02-25T20:08:29.157Z,15.90
2019-02-25T20:11:09.721Z,15.63
2019-02-25T20:13:46.422Z,16.43
2019-02-25T20:16:27.046Z,16.80
2019-02-25T20:19:02.599Z,17.73
2019-02-25T20:21:39.208Z,20.83
2019-02-25T20:24:21.233Z,26.17
2019-02-25T20:26:59.678Z,21.47
2019-02-25T20:29:36.101Z,21.87
2019-02-25T20:32:14.784Z,24.10
2019-02-25T20:34:52.770Z,27.10
2019-02-25T20:37:30.018Z,23.50
2019-02-25T20:40:07.487Z,23.47
2019-02-25T20:42:49.117Z,20.40
2019-02-25T20:45:25.251Z,19.67
2019-02-25T20:48:01.961Z,19.30
2019-02-25T20:50:50.732Z,19.37
2019-02-25T20:53:30.088Z,18.53
2019-02-25T20:56:05.745Z,19.90
2019-02-25T20:58:44.762Z,19.00
2019-02-25T21:01:20.987Z,19.83
2019-02-25T21:03:58.326Z,18.73
2019-02-25T21:06:37.466Z,19.93
2019-02-25T21:09:13.312Z,19.17
2019-02-25T21:11:50.910Z,18.43
2019-02-25T21:14:31.777Z,20.07
2019-02-25T21:17:08.128Z,20.67
2019-02-25T21:19:45.611Z,20.10
2019-02-25T21:22:25.283Z,19.10
2019-02-25T21:25:02.617Z,19.17
2019-02-25T21:27:40.794Z,21.13
2019-02-25T21:30:17.879Z,20.97
2019-02-25T21:32:57.189Z,19.73
2019-02-25T21:35:35.451Z,19.00
2019-02-25T21:38:10.362Z,19.27
2019-02-25T21:40:52.696Z,20.57
2019-02-25T21:43:29.147Z,21.67
2019-02-25T21:46:06.192Z,21.37
2019-02-25T21:48:43.702Z,22.20
2019-02-25T21:51:43.651Z,21.77
2019-02-25T21:54:19.509Z,20.17
2019-02-25T21:56:58.577Z,19.83
2019-02-25T21:59:36.512Z,20.63
2019-02-25T22:02:12.105Z,20.27
2019-02-25T22:04:50.182Z,21.07
2019-02-25T22:07:28.942Z,21.17
2019-02-25T22:10:04.585Z,20.73
2019-02-25T22:12:43.915Z,20.67
2019-02-25T22:15:20.332Z,21.57
2019-02-25T22:17:57.091Z,21.03
2019-02-25T22:20:59.454Z,20.80
2019-02-25T22:23:37.166Z,19.60
2019-02-25T22:26:14.421Z,17.97
2019-02-25T22:28:53.220Z,17.37
2019-02-25T22:31:34.925Z,18.60
2019-02-25T22:34:12.652Z,17.37
2019-02-25T22:36:48.639Z,17.53
2019-02-25T22:39:27.108Z,17.83
2019-02-25T22:42:03.624Z,17.57
2019-02-25T22:44:40.246Z,17.43
2019-02-25T22:47:18.364Z,18.17
2019-02-25T22:49:55.220Z,17.53
2019-02-25T22:52:33.185Z,16.73
2019-02-25T22:55:12.242Z,16.40
2019-02-25T22:57:50.948Z,16.37
2019-02-25T23:00:58.832Z,18.13
2019-02-25T23:03:34.589Z,18.47
2019-02-25T23:06:13.561Z,18.90
2019-02-25T23:08:51.203Z,19.50
2019-02-25T23:11:39.856Z,18.00
2019-02-25T23:14:16.267Z,17.43
2019-02-25T23:16:52.290Z,17.27
2019-02-25T23:19:29.788Z,15.80
2019-02-25T23:22:17.460Z,15.70
2019-02-25T23:24:54.950Z,16.13
2019-02-25T23:27:34.311Z,16.93
2019-02-25T23:30:30.090Z,16.80
2019-02-25T23:33:09.762Z,16.60
2019-02-25T23:35:46.945Z,16.60
2019-02-25T23:38:22.549Z,16.53
2019-02-25T23:41:03.256Z,15.63
2019-02-25T23:43:38.462Z,16.67
2019-02-25T23:46:15.143Z,16.27
2019-02-25T23:48:53.512Z,17.20
2019-02-25T23:51:33.135Z,15.90
2019-02-25T23:54:12.148Z,15.90
2019-02-25T23:56:50.256Z,15.33
2019-02-25T23:59:26.596Z,15.03
